createdAt,value
2022-11-16T00:02:16.787Z,6.13
2022-11-16T00:04:43.733Z,6.30
2022-11-16T00:07:10.777Z,6.55
2022-11-16T00:09:37.908Z,6.18
2022-11-16T00:12:07.562Z,6.35
2022-11-16T00:14:35.740Z,6.60
2022-11-16T00:17:03.830Z,6.55
2022-11-16T00:19:31.533Z,7.10
2022-11-16T00:21:59.039Z,6.88
2022-11-16T00:24:25.844Z,7.15
2022-11-16T00:26:54.857Z,7.00
2022-11-16T00:29:24.339Z,6.60
2022-11-16T00:31:52.271Z,6.65
2022-11-16T00:34:19.783Z,6.43
2022-11-16T00:36:47.046Z,6.90
2022-11-16T00:39:15.577Z,7.07
2022-11-16T00:41:43.293Z,6.90
2022-11-16T00:44:10.968Z,7.60
2022-11-16T00:46:37.815Z,7.07
2022-11-16T00:49:05.610Z,7.28
2022-11-16T00:51:33.779Z,7.20
2022-11-16T00:54:01.339Z,7.72
2022-11-16T00:56:28.068Z,7.38
2022-11-16T00:58:54.875Z,7.18
2022-11-16T01:01:23.854Z,8.23
2022-11-16T01:03:50.669Z,7.70
2022-11-16T01:06:17.919Z,8.27
2022-11-16T01:08:45.145Z,7.45
2022-11-16T01:11:33.990Z,7.45
2022-11-16T01:14:03.855Z,7.55
2022-11-16T01:16:30.685Z,7.88
2022-11-16T01:18:57.528Z,7.40
2022-11-16T01:21:24.753Z,7.05
2022-11-16T01:23:52.301Z,9.18
2022-11-16T01:26:19.176Z,7.82
2022-11-16T01:28:46.316Z,8.27
2022-11-16T01:31:13.160Z,7.63
2022-11-16T01:33:40.286Z,7.47
2022-11-16T01:36:14.842Z,8.18
2022-11-16T01:38:43.549Z,7.88
2022-11-16T01:41:17.561Z,7.47
2022-11-16T01:43:55.397Z,8.25
2022-11-16T01:46:22.541Z,7.78
2022-11-16T01:48:52.735Z,7.57
2022-11-16T01:51:19.882Z,7.90
2022-11-16T01:53:46.907Z,7.97
2022-11-16T01:56:13.598Z,8.27
2022-11-16T01:58:41.497Z,8.00
2022-11-16T02:01:08.582Z,7.88
2022-11-16T02:03:38.496Z,7.90
2022-11-16T02:06:28.147Z,8.85
2022-11-16T02:09:37.052Z,8.13
2022-11-16T02:12:13.233Z,8.13
2022-11-16T02:14:50.105Z,8.90
2022-11-16T02:17:40.693Z,8.05
2022-11-16T02:20:19.516Z,8.68
2022-11-16T02:22:55.513Z,8.30
2022-11-16T02:25:37.192Z,8.38
2022-11-16T02:28:28.179Z,8.00
2022-11-16T02:31:00.111Z,8.52
2022-11-16T02:33:35.169Z,9.40
2022-11-16T02:36:05.196Z,9.20
2022-11-16T02:38:37.415Z,8.70
2022-11-16T02:41:10.262Z,9.00
2022-11-16T02:43:41.784Z,8.75
2022-11-16T02:46:17.061Z,9.77
2022-11-16T02:48:48.663Z,8.77
2022-11-16T02:51:17.253Z,9.45
2022-11-16T02:54:12.810Z,8.75
2022-11-16T02:57:17.538Z,8.45
2022-11-16T02:59:51.846Z,7.93
2022-11-16T03:02:37.193Z,7.80
2022-11-16T03:05:03.939Z,7.53
2022-11-16T03:07:49.474Z,6.95
2022-11-16T03:10:38.923Z,7.00
2022-11-16T03:13:08.809Z,6.65
2022-11-16T03:15:41.668Z,6.32
2022-11-16T03:18:09.291Z,6.10
2022-11-16T03:20:39.040Z,5.80
2022-11-16T03:23:10.576Z,6.03
2022-11-16T03:25:43.504Z,6.18
2022-11-16T03:28:43.337Z,5.93
2022-11-16T03:31:28.348Z,6.00
2022-11-16T03:33:58.237Z,6.20
2022-11-16T03:36:32.255Z,5.47
2022-11-16T03:39:10.411Z,5.68
2022-11-16T03:41:40.944Z,5.75
2022-11-16T03:44:13.378Z,6.13
2022-11-16T03:46:43.508Z,5.85
2022-11-16T03:49:10.269Z,6.05
2022-11-16T03:51:37.657Z,5.32
2022-11-16T03:54:05.422Z,4.70
2022-11-16T03:56:34.770Z,5.20
2022-11-16T03:59:01.548Z,5.28
2022-11-16T04:01:30.687Z,4.63
2022-11-16T04:03:57.579Z,5.13
2022-11-16T04:06:43.221Z,5.20
2022-11-16T04:09:22.698Z,5.18
2022-11-16T04:12:08.755Z,5.35
2022-11-16T04:14:54.123Z,5.10
2022-11-16T04:17:42.828Z,4.78
2022-11-16T04:20:30.319Z,4.90
2022-11-16T04:23:26.934Z,4.68
2022-11-16T04:25:54.153Z,4.55
2022-11-16T04:28:25.048Z,4.75
2022-11-16T04:34:11.077Z,4.50
2022-11-16T04:36:56.735Z,4.75
2022-11-16T04:39:23.516Z,4.70
2022-11-16T04:42:10.845Z,4.53
2022-11-16T04:45:00.791Z,4.97
2022-11-16T04:47:27.586Z,4.30
2022-11-16T04:50:00.543Z,5.57
2022-11-16T04:52:27.502Z,4.32
2022-11-16T04:54:56.841Z,4.57
2022-11-16T04:57:38.339Z,4.13
2022-11-16T05:00:13.366Z,5.00
2022-11-16T05:02:42.955Z,5.15
2022-11-16T05:05:10.450Z,5.00
2022-11-16T05:07:39.748Z,5.07
2022-11-16T05:10:07.386Z,5.30
2022-11-16T05:12:34.679Z,5.50
2022-11-16T05:15:01.852Z,5.32
2022-11-16T05:17:34.639Z,4.70
2022-11-16T05:20:20.193Z,5.22
2022-11-16T05:22:56.682Z,5.35
2022-11-16T05:25:24.080Z,4.93
2022-11-16T05:27:50.861Z,5.13
2022-11-16T05:30:17.692Z,5.22
2022-11-16T05:32:44.618Z,9.32
2022-11-16T05:35:11.264Z,5.10
2022-11-16T05:37:39.486Z,6.18
2022-11-16T05:40:07.516Z,4.93
2022-11-16T05:42:34.341Z,5.05
2022-11-16T05:45:01.261Z,4.95
2022-11-16T05:47:28.069Z,5.10
2022-11-16T05:49:54.793Z,4.95
2022-11-16T05:52:21.515Z,4.60
2022-11-16T05:54:48.236Z,4.85
2022-11-16T05:57:15.413Z,4.82
2022-11-16T05:59:42.577Z,5.10
2022-11-16T06:02:09.403Z,4.82
2022-11-16T06:04:36.102Z,6.30
2022-11-16T06:07:02.885Z,5.32
2022-11-16T06:09:29.647Z,4.82
2022-11-16T06:11:56.355Z,4.45
2022-11-16T06:14:23.232Z,4.40
2022-11-16T06:16:50.341Z,4.78
2022-11-16T06:19:17.153Z,4.55
2022-11-16T06:21:44.042Z,6.32
2022-11-16T06:24:11.588Z,4.38
2022-11-16T06:26:38.401Z,4.50
2022-11-16T06:29:05.268Z,4.70
2022-11-16T06:31:32.290Z,5.00
2022-11-16T06:33:58.982Z,4.50
2022-11-16T06:36:26.503Z,5.82
2022-11-16T06:38:53.457Z,4.60
2022-11-16T06:41:26.442Z,4.60
2022-11-16T06:43:53.593Z,5.40
2022-11-16T06:46:21.180Z,6.15
2022-11-16T06:48:48.796Z,5.30
2022-11-16T06:51:20.855Z,7.20
2022-11-16T06:53:47.725Z,5.65
2022-11-16T06:56:16.505Z,5.97
2022-11-16T06:58:43.301Z,6.05
2022-11-16T07:01:12.500Z,6.50
2022-11-16T07:03:39.415Z,6.78
2022-11-16T07:06:11.555Z,6.60
2022-11-16T07:08:39.131Z,7.35
2022-11-16T07:11:07.514Z,7.57
2022-11-16T07:13:35.594Z,6.82
2022-11-16T07:16:07.279Z,7.43
2022-11-16T07:18:39.283Z,7.68
2022-11-16T07:21:14.748Z,6.90
2022-11-16T07:23:44.363Z,7.10
2022-11-16T07:26:11.922Z,7.50
2022-11-16T07:28:43.299Z,6.95
2022-11-16T07:31:14.738Z,7.03
2022-11-16T07:33:41.690Z,7.43
2022-11-16T07:36:12.606Z,6.95
2022-11-16T07:41:12.116Z,6.95
2022-11-16T07:43:39.880Z,6.60
2022-11-16T07:49:01.821Z,6.78
2022-11-16T07:51:28.671Z,5.97
2022-11-16T07:53:56.027Z,6.38
2022-11-16T07:56:25.543Z,5.95
2022-11-16T07:58:52.672Z,6.80
2022-11-16T08:01:20.135Z,5.97
2022-11-16T08:03:47.116Z,6.03
2022-11-16T08:06:17.133Z,5.80
2022-11-16T08:08:44.402Z,5.50
2022-11-16T08:11:12.646Z,5.30
2022-11-16T08:13:41.001Z,5.20
2022-11-16T08:16:13.484Z,6.22
2022-11-16T08:18:41.780Z,5.47
2022-11-16T08:21:10.905Z,5.68
2022-11-16T08:23:38.104Z,5.38
2022-11-16T08:26:11.369Z,5.38
2022-11-16T08:28:38.289Z,4.85
2022-11-16T08:31:11.356Z,5.30
2022-11-16T08:33:38.160Z,6.35
2022-11-16T08:36:10.998Z,5.82
2022-11-16T08:38:40.692Z,5.65
2022-11-16T08:41:07.785Z,5.97
2022-11-16T08:43:35.855Z,6.07
2022-11-16T08:46:03.141Z,5.70
2022-11-16T08:48:29.955Z,5.55
2022-11-16T08:51:21.575Z,5.97
2022-11-16T08:53:49.745Z,5.50
2022-11-16T08:56:18.316Z,6.57
2022-11-16T08:58:47.379Z,6.10
2022-11-16T09:01:20.470Z,6.07
2022-11-16T09:03:47.683Z,5.78
2022-11-16T09:06:15.207Z,7.50
2022-11-16T09:08:44.161Z,5.82
2022-11-16T09:11:17.473Z,5.55
2022-11-16T09:13:45.442Z,6.38
2022-11-16T09:16:15.696Z,5.82
2022-11-16T09:18:43.864Z,6.35
2022-11-16T09:21:10.601Z,5.30
2022-11-16T09:23:37.322Z,5.60
2022-11-16T09:26:05.492Z,6.22
2022-11-16T09:28:33.150Z,5.72
2022-11-16T09:31:02.191Z,5.50
2022-11-16T09:33:32.241Z,5.28
2022-11-16T09:36:10.120Z,5.32
2022-11-16T09:41:58.036Z,5.40
2022-11-16T09:44:49.290Z,5.30
2022-11-16T09:47:22.804Z,5.35
2022-11-16T09:50:02.704Z,6.40
2022-11-16T09:52:45.761Z,6.15
2022-11-16T09:55:37.946Z,5.18
2022-11-16T09:58:16.121Z,5.05
2022-11-16T10:00:48.842Z,5.78
2022-11-16T10:03:17.718Z,5.00
2022-11-16T10:06:06.449Z,5.38
2022-11-16T10:08:53.009Z,6.25
2022-11-16T10:11:38.420Z,5.20
2022-11-16T10:14:17.235Z,5.35
2022-11-16T10:17:29.161Z,5.68
2022-11-16T10:20:20.051Z,6.18
2022-11-16T10:23:03.854Z,5.25
2022-11-16T10:25:45.748Z,4.93
2022-11-16T10:28:46.020Z,6.05
2022-11-16T10:31:51.541Z,5.68
2022-11-16T10:34:38.013Z,5.60
2022-11-16T10:37:09.118Z,6.10
2022-11-16T10:39:40.879Z,6.03
2022-11-16T10:42:16.507Z,5.85
2022-11-16T10:44:51.873Z,5.85
2022-11-16T10:47:22.013Z,6.22
2022-11-16T10:50:05.225Z,5.72
2022-11-16T10:52:31.919Z,6.35
2022-11-16T10:54:58.865Z,6.65
2022-11-16T10:57:26.558Z,5.85
2022-11-16T10:59:59.026Z,5.85
2022-11-16T11:02:36.159Z,6.40
2022-11-16T11:05:15.279Z,6.63
2022-11-16T11:07:46.653Z,6.32
2022-11-16T11:10:29.941Z,6.45
2022-11-16T11:13:10.711Z,6.45
2022-11-16T11:15:42.751Z,6.63
2022-11-16T11:18:19.556Z,7.20
2022-11-16T11:20:57.739Z,7.10
2022-11-16T11:23:26.369Z,6.57
2022-11-16T11:25:54.157Z,7.20
2022-11-16T11:28:20.929Z,7.22
2022-11-16T11:30:53.776Z,6.55
2022-11-16T11:33:23.684Z,5.80
2022-11-16T11:36:04.585Z,6.93
2022-11-16T11:38:32.385Z,6.70
2022-11-16T11:41:05.266Z,7.20
2022-11-16T11:43:34.299Z,7.22
2022-11-16T11:46:15.516Z,7.90
2022-11-16T11:51:27.376Z,7.68
2022-11-16T11:53:59.209Z,7.60
2022-11-16T11:56:30.012Z,7.60
2022-11-16T12:01:58.974Z,7.97
2022-11-16T12:05:00.128Z,6.80
2022-11-16T12:10:30.670Z,7.22
2022-11-16T12:13:18.548Z,7.15
2022-11-16T12:16:13.893Z,7.47
2022-11-16T12:19:14.509Z,7.65
2022-11-16T12:21:59.835Z,7.45
2022-11-16T12:24:50.703Z,7.65
2022-11-16T12:27:50.163Z,8.00
2022-11-16T12:30:19.857Z,7.18
2022-11-16T12:33:05.026Z,7.28
2022-11-16T12:35:53.327Z,7.10
2022-11-16T12:38:52.095Z,7.25
2022-11-16T12:41:34.103Z,7.57
2022-11-16T12:44:12.898Z,6.70
2022-11-16T12:47:02.637Z,6.85
2022-11-16T12:49:58.221Z,7.50
2022-11-16T12:52:36.955Z,7.00
2022-11-16T12:55:27.247Z,7.07
2022-11-16T13:01:02.640Z,7.05
2022-11-16T13:03:39.484Z,7.10
2022-11-16T13:06:19.550Z,8.00
2022-11-16T13:09:04.034Z,7.03
2022-11-16T13:11:38.050Z,7.40
2022-11-16T13:14:11.643Z,7.22
2022-11-16T13:16:39.493Z,6.47
2022-11-16T13:19:10.148Z,7.20
2022-11-16T13:21:54.269Z,6.82
2022-11-16T13:24:46.201Z,7.47
2022-11-16T13:27:43.771Z,7.80
2022-11-16T13:30:23.104Z,7.43
2022-11-16T13:33:12.349Z,7.72
2022-11-16T13:35:39.524Z,7.90
2022-11-16T13:38:12.601Z,7.10
2022-11-16T13:40:40.547Z,7.13
2022-11-16T13:43:10.216Z,7.65
2022-11-16T13:45:45.711Z,6.88
2022-11-16T13:48:23.192Z,7.53
2022-11-16T13:50:58.592Z,7.00
2022-11-16T13:56:48.891Z,7.20
2022-11-16T13:59:22.721Z,7.22
2022-11-16T14:02:01.982Z,9.02
2022-11-16T14:04:38.730Z,9.63
2022-11-16T14:07:25.539Z,8.70
2022-11-16T14:09:52.244Z,10.20
2022-11-16T14:12:37.577Z,9.63
2022-11-16T14:15:15.071Z,7.30
2022-11-16T14:17:55.570Z,7.43
2022-11-16T14:20:48.987Z,8.60
2022-11-16T14:23:31.258Z,7.85
2022-11-16T14:26:18.759Z,7.65
2022-11-16T14:28:52.882Z,7.63
2022-11-16T14:31:30.007Z,8.52
2022-11-16T14:33:59.408Z,9.48
2022-11-16T14:36:43.950Z,7.97
2022-11-16T14:39:32.893Z,9.30
2022-11-16T14:42:04.441Z,10.07
2022-11-16T14:44:37.827Z,9.32
2022-11-16T14:47:05.011Z,7.93
2022-11-16T14:49:35.916Z,8.38
2022-11-16T14:55:06.271Z,7.70
2022-11-16T14:57:33.201Z,7.80
2022-11-16T15:00:11.289Z,8.30
2022-11-16T15:02:40.165Z,8.23
2022-11-16T15:05:07.442Z,7.85
2022-11-16T15:07:34.573Z,8.35
2022-11-16T15:10:01.601Z,9.07
2022-11-16T15:12:41.546Z,7.80
2022-11-16T15:15:11.318Z,8.13
2022-11-16T15:17:43.854Z,8.10
2022-11-16T15:20:16.608Z,7.50
2022-11-16T15:22:48.736Z,7.75
2022-11-16T15:25:35.679Z,7.38
2022-11-16T15:28:27.068Z,7.28
2022-11-16T15:30:58.879Z,7.57
2022-11-16T15:33:36.851Z,7.35
2022-11-16T15:36:25.153Z,7.47
2022-11-16T15:38:55.428Z,7.30
2022-11-16T15:41:24.048Z,7.82
2022-11-16T15:44:13.208Z,6.95
2022-11-16T15:46:44.838Z,7.35
2022-11-16T15:49:36.177Z,6.90
2022-11-16T15:52:03.301Z,7.35
2022-11-16T15:54:54.826Z,6.88
2022-11-16T15:57:23.869Z,6.97
2022-11-16T15:59:55.326Z,7.03
2022-11-16T16:02:27.427Z,6.88
2022-11-16T16:04:54.131Z,6.80
2022-11-16T16:07:50.475Z,6.97
2022-11-16T16:10:26.600Z,6.95
2022-11-16T16:12:57.842Z,6.70
2022-11-16T16:15:34.257Z,7.10
2022-11-16T16:18:04.382Z,6.88
2022-11-16T16:20:42.288Z,8.02
2022-11-16T16:23:17.816Z,6.97
2022-11-16T16:25:50.660Z,7.70
2022-11-16T16:28:17.771Z,7.00
2022-11-16T16:30:44.464Z,6.72
2022-11-16T16:33:19.374Z,7.20
2022-11-16T16:35:52.130Z,6.85
2022-11-16T16:38:18.850Z,7.10
2022-11-16T16:40:45.529Z,10.07
2022-11-16T16:43:13.668Z,7.53
2022-11-16T16:45:43.682Z,7.07
2022-11-16T16:48:13.785Z,7.45
2022-11-16T16:50:40.460Z,6.82
2022-11-16T16:53:10.409Z,8.48
2022-11-16T16:55:38.220Z,7.47
2022-11-16T16:58:06.183Z,7.50
2022-11-16T17:00:33.319Z,7.00
2022-11-16T17:03:01.568Z,7.20
2022-11-16T17:05:30.464Z,6.57
2022-11-16T17:07:57.225Z,7.32
2022-11-16T17:10:24.313Z,7.68
2022-11-16T17:12:54.137Z,7.40
2022-11-16T17:15:21.237Z,6.85
2022-11-16T17:17:48.285Z,6.75
2022-11-16T17:20:16.243Z,6.78
2022-11-16T17:22:43.298Z,6.97
2022-11-16T17:25:10.551Z,9.82
2022-11-16T17:27:37.479Z,8.27
2022-11-16T17:30:04.643Z,6.75
2022-11-16T17:32:31.406Z,7.07
2022-11-16T17:34:58.083Z,7.25
2022-11-16T17:37:24.829Z,6.90
2022-11-16T17:39:51.571Z,7.13
2022-11-16T17:42:18.405Z,7.20
2022-11-16T17:44:48.093Z,6.88
2022-11-16T17:47:14.873Z,7.07
2022-11-16T17:49:41.759Z,6.82
2022-11-16T17:52:08.575Z,7.50
2022-11-16T17:54:35.286Z,9.05
2022-11-16T17:57:02.009Z,7.20
2022-11-16T17:59:29.980Z,7.20
2022-11-16T18:02:00.253Z,6.70
2022-11-16T18:04:27.778Z,6.90
2022-11-16T18:06:55.934Z,7.15
2022-11-16T18:09:22.929Z,6.40
2022-11-16T18:11:49.604Z,7.18
2022-11-16T18:14:17.809Z,6.88
2022-11-16T18:16:48.016Z,6.90
2022-11-16T18:19:17.850Z,13.63
2022-11-16T18:21:47.046Z,7.25
2022-11-16T18:24:14.192Z,7.00
2022-11-16T18:26:41.749Z,6.65
2022-11-16T18:29:12.604Z,6.68
2022-11-16T18:31:39.459Z,6.50
2022-11-16T18:34:08.558Z,6.82
2022-11-16T18:36:35.375Z,6.40
2022-11-16T18:39:02.073Z,6.80
2022-11-16T18:41:32.753Z,6.95
2022-11-16T18:46:32.335Z,7.05
2022-11-16T18:48:59.403Z,10.75
2022-11-16T18:51:27.471Z,7.47
2022-11-16T18:53:54.724Z,7.60
2022-11-16T18:56:21.756Z,7.13
2022-11-16T18:58:51.383Z,6.88
2022-11-16T19:01:21.923Z,6.28
2022-11-16T19:03:50.692Z,6.30
2022-11-16T19:06:22.118Z,6.82
2022-11-16T19:08:56.389Z,6.75
2022-11-16T19:11:24.192Z,6.25
2022-11-16T19:14:00.535Z,6.82
2022-11-16T19:16:28.053Z,12.65
2022-11-16T19:18:55.223Z,8.00
2022-11-16T19:21:22.150Z,7.63
2022-11-16T19:23:53.686Z,6.60
2022-11-16T19:26:23.470Z,7.72
2022-11-16T19:28:51.624Z,7.22
2022-11-16T19:31:26.641Z,6.68
2022-11-16T19:34:04.891Z,7.15
2022-11-16T19:36:32.949Z,10.15
2022-11-16T19:39:00.079Z,7.05
2022-11-16T19:41:27.525Z,7.07
2022-11-16T19:43:59.567Z,6.60
2022-11-16T19:46:28.321Z,7.32
2022-11-16T19:48:56.039Z,6.88
2022-11-16T19:51:28.845Z,6.60
2022-11-16T19:53:56.194Z,6.68
2022-11-16T19:56:24.096Z,8.95
2022-11-16T19:58:51.459Z,8.63
2022-11-16T20:01:25.262Z,6.43
2022-11-16T20:03:52.194Z,7.65
2022-11-16T20:06:22.949Z,7.03
2022-11-16T20:08:52.469Z,6.90
2022-11-16T20:11:21.808Z,7.65
2022-11-16T20:13:49.868Z,7.05
2022-11-16T20:16:18.220Z,7.25
2022-11-16T20:18:45.525Z,7.53
2022-11-16T20:21:17.519Z,7.20
2022-11-16T20:23:45.429Z,7.40
2022-11-16T20:26:15.141Z,7.00
2022-11-16T20:28:42.974Z,8.52
2022-11-16T20:31:17.981Z,11.10
2022-11-16T20:33:56.071Z,7.00
2022-11-16T20:36:24.735Z,7.10
2022-11-16T20:38:52.573Z,6.60
2022-11-16T20:41:22.073Z,6.95
2022-11-16T20:43:55.287Z,6.97
2022-11-16T20:46:24.343Z,7.43
2022-11-16T20:48:51.495Z,6.38
2022-11-16T20:51:20.581Z,7.53
2022-11-16T20:53:48.607Z,6.60
2022-11-16T20:56:17.401Z,7.35
2022-11-16T20:58:44.374Z,6.25
2022-11-16T21:01:12.825Z,6.30
2022-11-16T21:03:40.376Z,6.85
2022-11-16T21:06:08.720Z,6.57
2022-11-16T21:08:36.997Z,6.40
2022-11-16T21:11:15.369Z,6.60
2022-11-16T21:14:01.309Z,6.20
2022-11-16T21:16:28.103Z,6.30
2022-11-16T21:18:55.676Z,5.85
2022-11-16T21:21:22.994Z,6.32
2022-11-16T21:23:56.198Z,5.50
2022-11-16T21:26:27.822Z,6.10
2022-11-16T21:28:54.659Z,6.28
2022-11-16T21:31:27.555Z,6.20
2022-11-16T21:33:55.565Z,7.28
2022-11-16T21:36:24.619Z,6.50
2022-11-16T21:38:52.384Z,6.30
2022-11-16T21:41:21.449Z,6.25
2022-11-16T21:43:48.700Z,6.32
2022-11-16T21:46:18.223Z,6.20
2022-11-16T21:48:47.053Z,6.43
2022-11-16T21:51:16.499Z,6.28
2022-11-16T21:53:43.840Z,6.18
2022-11-16T21:56:16.558Z,6.03
2022-11-16T21:58:43.933Z,5.90
2022-11-16T22:01:11.938Z,6.30
2022-11-16T22:03:39.198Z,5.97
2022-11-16T22:06:26.552Z,6.13
2022-11-16T22:08:53.389Z,5.90
2022-11-16T22:11:22.098Z,5.90
2022-11-16T22:13:50.116Z,6.30
2022-11-16T22:16:18.594Z,6.03
2022-11-16T22:18:45.566Z,6.05
2022-11-16T22:21:12.714Z,6.32
2022-11-16T22:23:39.871Z,6.15
2022-11-16T22:26:08.420Z,6.00
2022-11-16T22:28:36.261Z,6.30
2022-11-16T22:31:09.427Z,5.95
2022-11-16T22:33:37.082Z,6.88
2022-11-16T22:36:04.591Z,6.65
2022-11-16T22:38:31.787Z,6.45
2022-11-16T22:40:58.519Z,6.50
2022-11-16T22:43:30.286Z,6.20
2022-11-16T22:46:02.245Z,6.70
2022-11-16T22:48:36.601Z,6.40
2022-11-16T22:51:09.323Z,6.25
2022-11-16T22:53:36.551Z,6.22
2022-11-16T22:56:05.826Z,6.80
2022-11-16T22:58:32.633Z,6.60
2022-11-16T23:00:59.380Z,6.93
2022-11-16T23:03:26.328Z,5.97
2022-11-16T23:05:53.068Z,6.75
2022-11-16T23:08:24.767Z,6.65
2022-11-16T23:11:21.087Z,6.63
2022-11-16T23:14:07.070Z,7.53
2022-11-16T23:16:34.209Z,6.53
2022-11-16T23:19:01.218Z,6.30
2022-11-16T23:21:46.889Z,6.25
2022-11-16T23:24:34.113Z,6.50
2022-11-16T23:27:21.923Z,6.47
2022-11-16T23:29:49.889Z,6.10
2022-11-16T23:32:16.832Z,6.63
2022-11-16T23:34:43.496Z,6.25
2022-11-16T23:37:10.204Z,6.47
2022-11-16T23:39:36.879Z,6.78
2022-11-16T23:42:22.171Z,6.38
2022-11-16T23:44:48.888Z,7.00
2022-11-16T23:47:15.892Z,6.72
2022-11-16T23:49:42.717Z,6.40
2022-11-16T23:52:09.475Z,6.38
2022-11-16T23:54:36.175Z,6.45
2022-11-16T23:57:03.623Z,7.50
2022-11-16T23:59:30.499Z,6.32
